Аэропорт
Сыктывкар (UUYY)

 UUYY / SCW
ЗЦ Санкт-Петербург
Сыктывкар (UUYY)
Сыктывкар (UUYY)
 61.64700, 50.84510  / 342 ft

 UUYY 311030Z 36003MPS CAVOK M00/M13 Q1011 R36/61D NOSIG RMK QFE749/0999
 TAF UUYY 310800Z 3109/0109 02003MPS 9999 BKN016 TEMPO 3109/3112 04003G08MPS 1000 SHSN BKN011CB TEMPO 3112/0103 3100 -SHSN BKN011CB FM010300 03003G08MPS 3100 -SHSN BKN011 BKN016CB
UUYY_j_0220
показать схемы
Название сценария Тип сценария Flight Simulator 9 Flight Simulator X Prepar3D v2 Prepar3D v3 Prepar3D v4 xPlane
UUYY-syktyvkar_FS9 бесплатный
UUYY_FSXP3Dv2 бесплатный

Аэродром "Сыктывкар" (UUYY)

Рекомендованные сценарии:

FS2004 от Aniter

P3D/FSX от Aniter 

Схемы:

АИП

Средства связи ОВД:

UUYY_R_APP - Сивкар-Круг - 124.600

UUYY_TWR - Сивкар-Старт - 124.600

UUYY_ATIS - Сивкар-АТИС (русский, английский) - 126.600



2020 © VATRUS division (Privacy Policy)